Portada
METAR-TAF:

METAR-TAF

Aeroports :

São Paulo, São Paulo, Brasil

latitud: 23-31S, longitud: 046-38W, altitud: 722 m

Observació

L'informe es va fer fa 59 minuts, a les 23:00 UTC
Vent 4 kt del Sud/Sud-Est
Temperatura 18°C
Humitat 83%
Pressió 1017 hPa
Visibilitat: 7000 m
Escasses núvols a una alçada de 1000 ft
Núvols disperses a una alçada de 1300 ft

METAR: SBMT 122300Z 15004KT 7000 FEW010 SCT013 18/15 Q1017

Hora: 20:59 (23:59 UTC)


TAF: manca

Observacions i pronòstics meteorològics de més de 4000 aeroports (METAR i TAF).

Les estacions disponibles són els punts grocs i vermells al mapa.

Posi el ratolí al punt desitjat per veure el nom de l'estació.

Feu clic per veure les observacions i els pronòstics meteorològics.

Per canviar el mapa: feu clic els botons verds amb una creu de color negre per apropar; al botó verd amb un guió per allunyar la imatge; o en les fletxes verdes per a mapes adjacents.


METAR-TAF: